sensor_id;sensor_type;location;lat;lon;timestamp;temperature;humidity
5850;DHT22;2951;47.712;9.400;2022-08-03T00:01:49;19.80;99.90
5850;DHT22;2951;47.712;9.400;2022-08-03T00:04:16;19.80;99.90
5850;DHT22;2951;47.712;9.400;2022-08-03T00:06:43;19.80;99.90
5850;DHT22;2951;47.712;9.400;2022-08-03T00:09:10;19.70;99.90
5850;DHT22;2951;47.712;9.400;2022-08-03T00:11:37;19.70;99.90
5850;DHT22;2951;47.712;9.400;2022-08-03T00:14:04;19.60;99.90
5850;DHT22;2951;47.712;9.400;2022-08-03T00:16:31;19.60;99.90
5850;DHT22;2951;47.712;9.400;2022-08-03T00:18:58;19.60;99.90
5850;DHT22;2951;47.712;9.400;2022-08-03T00:21:26;19.60;99.90
5850;DHT22;2951;47.712;9.400;2022-08-03T00:23:53;19.50;99.90
5850;DHT22;2951;47.712;9.400;2022-08-03T00:26:20;19.40;99.90
5850;DHT22;2951;47.712;9.400;2022-08-03T00:28:48;19.40;99.90
5850;DHT22;2951;47.712;9.400;2022-08-03T00:31:15;19.40;99.90
5850;DHT22;2951;47.712;9.400;2022-08-03T00:33:42;19.30;99.90
5850;DHT22;2951;47.712;9.400;2022-08-03T00:36:24;19.00;99.90
5850;DHT22;2951;47.712;9.400;2022-08-03T00:38:51;19.00;99.90
5850;DHT22;2951;47.712;9.400;2022-08-03T00:41:18;19.10;99.90
5850;DHT22;2951;47.712;9.400;2022-08-03T00:43:44;19.20;99.90
5850;DHT22;2951;47.712;9.400;2022-08-03T00:46:12;19.20;99.90
5850;DHT22;2951;47.712;9.400;2022-08-03T00:48:44;19.20;99.90
5850;DHT22;2951;47.712;9.400;2022-08-03T00:51:11;19.20;99.90
5850;DHT22;2951;47.712;9.400;2022-08-03T00:53:38;19.10;99.90
5850;DHT22;2951;47.712;9.400;2022-08-03T00:56:04;19.10;99.90
5850;DHT22;2951;47.712;9.400;2022-08-03T00:58:31;19.10;99.90
5850;DHT22;2951;47.712;9.400;2022-08-03T01:00:58;19.00;99.90
5850;DHT22;2951;47.712;9.400;2022-08-03T01:03:25;19.00;99.90
5850;DHT22;2951;47.712;9.400;2022-08-03T01:05:55;19.00;99.90
5850;DHT22;2951;47.712;9.400;2022-08-03T01:10:56;18.80;99.90
5850;DHT22;2951;47.712;9.400;2022-08-03T01:13:40;18.80;99.90
5850;DHT22;2951;47.712;9.400;2022-08-03T01:16:31;18.70;99.90
5850;DHT22;2951;47.712;9.400;2022-08-03T01:27:02;18.60;99.90
5850;DHT22;2951;47.712;9.400;2022-08-03T01:31:59;18.80;99.90
5850;DHT22;2951;47.712;9.400;2022-08-03T01:34:48;18.70;99.90
5850;DHT22;2951;47.712;9.400;2022-08-03T01:37:21;18.70;99.90
5850;DHT22;2951;47.712;9.400;2022-08-03T01:39:50;18.70;99.90
5850;DHT22;2951;47.712;9.400;2022-08-03T01:42:17;18.80;99.90
5850;DHT22;2951;47.712;9.400;2022-08-03T01:44:45;18.80;99.90
5850;DHT22;2951;47.712;9.400;2022-08-03T01:47:14;18.80;99.90
5850;DHT22;2951;47.712;9.400;2022-08-03T01:49:42;18.80;99.90
5850;DHT22;2951;47.712;9.400;2022-08-03T01:52:10;18.80;99.90
5850;DHT22;2951;47.712;9.400;2022-08-03T01:54:39;18.80;99.90
5850;DHT22;2951;47.712;9.400;2022-08-03T01:57:07;18.70;99.90
5850;DHT22;2951;47.712;9.400;2022-08-03T01:59:35;18.70;99.90
5850;DHT22;2951;47.712;9.400;2022-08-03T02:02:03;18.70;99.90
5850;DHT22;2951;47.712;9.400;2022-08-03T02:04:50;18.60;99.90
5850;DHT22;2951;47.712;9.400;2022-08-03T02:07:18;18.50;99.90
5850;DHT22;2951;47.712;9.400;2022-08-03T02:09:45;18.50;99.90
5850;DHT22;2951;47.712;9.400;2022-08-03T02:12:14;18.50;99.90
5850;DHT22;2951;47.712;9.400;2022-08-03T02:14:42;18.40;99.90
5850;DHT22;2951;47.712;9.400;2022-08-03T02:17:09;18.20;99.90
5850;DHT22;2951;47.712;9.400;2022-08-03T02:19:37;18.00;99.90
5850;DHT22;2951;47.712;9.400;2022-08-03T02:22:06;17.90;99.90
5850;DHT22;2951;47.712;9.400;2022-08-03T02:24:33;18.00;99.90
5850;DHT22;2951;47.712;9.400;2022-08-03T02:27:00;18.10;99.90
5850;DHT22;2951;47.712;9.400;2022-08-03T02:29:29;18.20;99.90
5850;DHT22;2951;47.712;9.400;2022-08-03T02:32:05;18.40;99.90
5850;DHT22;2951;47.712;9.400;2022-08-03T02:34:34;18.40;99.90
5850;DHT22;2951;47.712;9.400;2022-08-03T02:37:02;18.50;99.90
5850;DHT22;2951;47.712;9.400;2022-08-03T02:39:32;18.50;99.90
5850;DHT22;2951;47.712;9.400;2022-08-03T02:42:00;18.50;99.90
5850;DHT22;2951;47.712;9.400;2022-08-03T02:44:30;18.50;99.90
5850;DHT22;2951;47.712;9.400;2022-08-03T02:47:04;18.40;99.90
5850;DHT22;2951;47.712;9.400;2022-08-03T02:49:31;18.20;99.90
5850;DHT22;2951;47.712;9.400;2022-08-03T02:52:10;18.30;99.90
5850;DHT22;2951;47.712;9.400;2022-08-03T02:54:40;18.30;99.90
5850;DHT22;2951;47.712;9.400;2022-08-03T02:57:08;18.20;99.90
5850;DHT22;2951;47.712;9.400;2022-08-03T02:59:36;18.20;99.90
5850;DHT22;2951;47.712;9.400;2022-08-03T03:02:04;18.30;99.90
5850;DHT22;2951;47.712;9.400;2022-08-03T03:04:31;18.20;99.90
5850;DHT22;2951;47.712;9.400;2022-08-03T03:06:58;18.20;99.90
5850;DHT22;2951;47.712;9.400;2022-08-03T03:09:27;18.10;99.90
5850;DHT22;2951;47.712;9.400;2022-08-03T03:12:06;18.10;99.90
5850;DHT22;2951;47.712;9.400;2022-08-03T03:14:33;18.10;99.90
5850;DHT22;2951;47.712;9.400;2022-08-03T03:17:00;18.20;99.90
5850;DHT22;2951;47.712;9.400;2022-08-03T03:19:27;18.20;99.90
5850;DHT22;2951;47.712;9.400;2022-08-03T03:21:55;18.20;99.90
5850;DHT22;2951;47.712;9.400;2022-08-03T03:24:21;18.20;99.90
5850;DHT22;2951;47.712;9.400;2022-08-03T03:26:48;18.20;99.90
5850;DHT22;2951;47.712;9.400;2022-08-03T03:29:15;18.10;99.90
5850;DHT22;2951;47.712;9.400;2022-08-03T03:31:42;18.10;99.90
5850;DHT22;2951;47.712;9.400;2022-08-03T03:34:09;18.00;99.90
5850;DHT22;2951;47.712;9.400;2022-08-03T03:36:35;18.00;99.90
5850;DHT22;2951;47.712;9.400;2022-08-03T03:39:02;18.00;99.90
5850;DHT22;2951;47.712;9.400;2022-08-03T03:41:41;17.90;99.90
5850;DHT22;2951;47.712;9.400;2022-08-03T03:44:08;17.90;99.90
5850;DHT22;2951;47.712;9.400;2022-08-03T03:46:35;17.90;99.90
5850;DHT22;2951;47.712;9.400;2022-08-03T03:49:04;17.90;99.90
5850;DHT22;2951;47.712;9.400;2022-08-03T03:51:30;17.90;99.90
5850;DHT22;2951;47.712;9.400;2022-08-03T03:53:58;17.90;99.90
5850;DHT22;2951;47.712;9.400;2022-08-03T03:56:26;17.80;99.90
5850;DHT22;2951;47.712;9.400;2022-08-03T03:58:53;17.60;99.90
5850;DHT22;2951;47.712;9.400;2022-08-03T04:01:20;17.50;99.90
5850;DHT22;2951;47.712;9.400;2022-08-03T04:03:46;17.50;99.90
5850;DHT22;2951;47.712;9.400;2022-08-03T04:06:13;17.40;99.90
5850;DHT22;2951;47.712;9.400;2022-08-03T04:08:59;17.30;99.90
5850;DHT22;2951;47.712;9.400;2022-08-03T04:11:49;17.40;99.90
5850;DHT22;2951;47.712;9.400;2022-08-03T04:14:18;17.40;99.90
5850;DHT22;2951;47.712;9.400;2022-08-03T04:16:47;17.60;99.90
5850;DHT22;2951;47.712;9.400;2022-08-03T04:19:16;17.60;99.90
5850;DHT22;2951;47.712;9.400;2022-08-03T04:21:49;17.70;99.90
5850;DHT22;2951;47.712;9.400;2022-08-03T04:24:17;17.80;99.90
5850;DHT22;2951;47.712;9.400;2022-08-03T04:26:44;17.80;99.90
5850;DHT22;2951;47.712;9.400;2022-08-03T04:29:16;17.80;99.90
5850;DHT22;2951;47.712;9.400;2022-08-03T04:31:43;17.80;99.90
5850;DHT22;2951;47.712;9.400;2022-08-03T04:34:11;17.70;99.90
5850;DHT22;2951;47.712;9.400;2022-08-03T04:36:39;17.80;99.90
5850;DHT22;2951;47.712;9.400;2022-08-03T04:39:12;17.70;99.90
5850;DHT22;2951;47.712;9.400;2022-08-03T04:41:39;17.80;99.90
5850;DHT22;2951;47.712;9.400;2022-08-03T04:44:26;17.90;99.90
5850;DHT22;2951;47.712;9.400;2022-08-03T04:46:55;18.00;99.90
5850;DHT22;2951;47.712;9.400;2022-08-03T04:49:22;17.90;99.90
5850;DHT22;2951;47.712;9.400;2022-08-03T04:51:49;18.00;99.90
5850;DHT22;2951;47.712;9.400;2022-08-03T04:54:16;18.00;99.90
5850;DHT22;2951;47.712;9.400;2022-08-03T04:56:43;18.00;99.90
5850;DHT22;2951;47.712;9.400;2022-08-03T04:59:10;18.10;99.90
5850;DHT22;2951;47.712;9.400;2022-08-03T05:01:38;18.20;99.90
5850;DHT22;2951;47.712;9.400;2022-08-03T05:04:05;18.20;99.90
5850;DHT22;2951;47.712;9.400;2022-08-03T05:06:32;18.20;99.90
5850;DHT22;2951;47.712;9.400;2022-08-03T05:08:58;18.20;99.90
5850;DHT22;2951;47.712;9.400;2022-08-03T05:11:25;18.40;99.90
5850;DHT22;2951;47.712;9.400;2022-08-03T05:13:52;18.50;99.90
5850;DHT22;2951;47.712;9.400;2022-08-03T05:16:19;18.60;99.90
5850;DHT22;2951;47.712;9.400;2022-08-03T05:18:45;18.60;99.90
5850;DHT22;2951;47.712;9.400;2022-08-03T05:21:12;18.70;99.90
5850;DHT22;2951;47.712;9.400;2022-08-03T05:23:39;18.70;99.90
5850;DHT22;2951;47.712;9.400;2022-08-03T05:26:06;18.70;99.90
5850;DHT22;2951;47.712;9.400;2022-08-03T05:28:33;18.80;99.90
5850;DHT22;2951;47.712;9.400;2022-08-03T05:31:00;18.90;99.90
5850;DHT22;2951;47.712;9.400;2022-08-03T05:33:27;19.00;99.90
5850;DHT22;2951;47.712;9.400;2022-08-03T05:35:54;19.10;99.90
5850;DHT22;2951;47.712;9.400;2022-08-03T05:38:29;19.20;99.90
5850;DHT22;2951;47.712;9.400;2022-08-03T05:40:59;19.30;99.90
5850;DHT22;2951;47.712;9.400;2022-08-03T05:43:46;19.50;99.90
5850;DHT22;2951;47.712;9.400;2022-08-03T05:46:13;19.60;99.90
5850;DHT22;2951;47.712;9.400;2022-08-03T05:48:40;19.60;99.90
5850;DHT22;2951;47.712;9.400;2022-08-03T05:51:07;19.60;99.90
5850;DHT22;2951;47.712;9.400;2022-08-03T05:53:37;19.70;99.90
5850;DHT22;2951;47.712;9.400;2022-08-03T05:56:04;19.90;99.90
5850;DHT22;2951;47.712;9.400;2022-08-03T05:58:40;20.00;99.90
5850;DHT22;2951;47.712;9.400;2022-08-03T06:01:07;20.10;99.90
5850;DHT22;2951;47.712;9.400;2022-08-03T06:03:34;20.20;99.90
5850;DHT22;2951;47.712;9.400;2022-08-03T06:06:00;20.40;99.90
5850;DHT22;2951;47.712;9.400;2022-08-03T06:08:27;20.60;99.90
5850;DHT22;2951;47.712;9.400;2022-08-03T06:10:54;20.70;99.90
5850;DHT22;2951;47.712;9.400;2022-08-03T06:13:20;20.90;99.90
5850;DHT22;2951;47.712;9.400;2022-08-03T06:15:47;21.00;99.90
5850;DHT22;2951;47.712;9.400;2022-08-03T06:18:14;21.10;99.90
5850;DHT22;2951;47.712;9.400;2022-08-03T06:20:41;21.20;99.90
5850;DHT22;2951;47.712;9.400;2022-08-03T06:23:07;21.20;99.90
5850;DHT22;2951;47.712;9.400;2022-08-03T06:25:41;21.00;99.90
5850;DHT22;2951;47.712;9.400;2022-08-03T06:28:08;20.90;99.90
5850;DHT22;2951;47.712;9.400;2022-08-03T06:30:44;21.00;99.90
5850;DHT22;2951;47.712;9.400;2022-08-03T06:33:11;21.20;99.90
5850;DHT22;2951;47.712;9.400;2022-08-03T06:35:38;21.20;99.90
5850;DHT22;2951;47.712;9.400;2022-08-03T06:38:05;21.40;99.90
5850;DHT22;2951;47.712;9.400;2022-08-03T06:40:33;21.80;99.90
5850;DHT22;2951;47.712;9.400;2022-08-03T06:43:01;21.90;99.90
5850;DHT22;2951;47.712;9.400;2022-08-03T06:45:28;22.10;99.90
5850;DHT22;2951;47.712;9.400;2022-08-03T06:48:08;22.20;99.90
5850;DHT22;2951;47.712;9.400;2022-08-03T06:50:36;22.20;99.90
5850;DHT22;2951;47.712;9.400;2022-08-03T06:53:03;22.30;99.90
5850;DHT22;2951;47.712;9.400;2022-08-03T06:55:30;22.70;99.90
5850;DHT22;2951;47.712;9.400;2022-08-03T06:57:57;22.70;99.90
5850;DHT22;2951;47.712;9.400;2022-08-03T07:00:25;22.60;99.90
5850;DHT22;2951;47.712;9.400;2022-08-03T07:02:52;22.70;99.90
5850;DHT22;2951;47.712;9.400;2022-08-03T07:05:23;22.60;99.90
5850;DHT22;2951;47.712;9.400;2022-08-03T07:07:54;22.60;99.90
5850;DHT22;2951;47.712;9.400;2022-08-03T07:10:22;22.80;99.90
5850;DHT22;2951;47.712;9.400;2022-08-03T07:12:49;22.90;99.90
5850;DHT22;2951;47.712;9.400;2022-08-03T07:15:18;22.80;99.90
5850;DHT22;2951;47.712;9.400;2022-08-03T07:17:45;22.80;99.90
5850;DHT22;2951;47.712;9.400;2022-08-03T07:20:12;22.90;99.90
5850;DHT22;2951;47.712;9.400;2022-08-03T07:22:40;22.90;99.90
5850;DHT22;2951;47.712;9.400;2022-08-03T07:25:07;23.00;99.90
5850;DHT22;2951;47.712;9.400;2022-08-03T07:27:35;23.10;99.90
5850;DHT22;2951;47.712;9.400;2022-08-03T07:30:04;23.10;99.90
5850;DHT22;2951;47.712;9.400;2022-08-03T07:32:31;23.20;99.90
5850;DHT22;2951;47.712;9.400;2022-08-03T07:34:57;23.40;99.90
5850;DHT22;2951;47.712;9.400;2022-08-03T07:37:27;23.50;99.90
5850;DHT22;2951;47.712;9.400;2022-08-03T07:39:53;23.60;99.90
5850;DHT22;2951;47.712;9.400;2022-08-03T07:42:20;23.60;99.90
5850;DHT22;2951;47.712;9.400;2022-08-03T07:44:48;23.70;99.90
5850;DHT22;2951;47.712;9.400;2022-08-03T07:47:18;23.70;99.90
5850;DHT22;2951;47.712;9.400;2022-08-03T07:49:48;23.80;99.90
5850;DHT22;2951;47.712;9.400;2022-08-03T07:52:14;23.90;99.90
5850;DHT22;2951;47.712;9.400;2022-08-03T07:55:00;24.20;99.90
5850;DHT22;2951;47.712;9.400;2022-08-03T07:57:27;24.30;99.90
5850;DHT22;2951;47.712;9.400;2022-08-03T07:59:53;24.40;99.90
5850;DHT22;2951;47.712;9.400;2022-08-03T08:02:22;24.40;99.90
5850;DHT22;2951;47.712;9.400;2022-08-03T08:04:49;24.40;99.90
5850;DHT22;2951;47.712;9.400;2022-08-03T08:07:15;24.50;99.90
5850;DHT22;2951;47.712;9.400;2022-08-03T08:09:42;24.60;99.90
5850;DHT22;2951;47.712;9.400;2022-08-03T08:12:09;24.80;99.90
5850;DHT22;2951;47.712;9.400;2022-08-03T08:14:41;24.80;99.90
5850;DHT22;2951;47.712;9.400;2022-08-03T08:17:11;24.70;99.90
5850;DHT22;2951;47.712;9.400;2022-08-03T08:19:38;24.70;99.90
5850;DHT22;2951;47.712;9.400;2022-08-03T08:22:09;24.80;99.90
5850;DHT22;2951;47.712;9.400;2022-08-03T08:24:35;24.90;99.90
5850;DHT22;2951;47.712;9.400;2022-08-03T08:27:02;24.90;99.90
5850;DHT22;2951;47.712;9.400;2022-08-03T08:29:29;24.90;99.90
5850;DHT22;2951;47.712;9.400;2022-08-03T08:31:56;25.10;99.90
5850;DHT22;2951;47.712;9.400;2022-08-03T08:34:22;25.20;99.90
5850;DHT22;2951;47.712;9.400;2022-08-03T08:36:49;25.40;99.90
5850;DHT22;2951;47.712;9.400;2022-08-03T08:39:16;25.50;99.90
5850;DHT22;2951;47.712;9.400;2022-08-03T08:41:43;25.60;99.90
5850;DHT22;2951;47.712;9.400;2022-08-03T08:44:11;25.60;99.90
5850;DHT22;2951;47.712;9.400;2022-08-03T08:46:38;25.60;99.90
5850;DHT22;2951;47.712;9.400;2022-08-03T08:49:05;25.60;99.90
5850;DHT22;2951;47.712;9.400;2022-08-03T08:51:34;25.80;99.90
5850;DHT22;2951;47.712;9.400;2022-08-03T08:54:19;25.60;99.90
5850;DHT22;2951;47.712;9.400;2022-08-03T08:56:47;25.60;99.90
5850;DHT22;2951;47.712;9.400;2022-08-03T08:59:14;25.70;99.90
5850;DHT22;2951;47.712;9.400;2022-08-03T09:01:41;26.00;99.90
5850;DHT22;2951;47.712;9.400;2022-08-03T09:04:08;26.10;99.90
5850;DHT22;2951;47.712;9.400;2022-08-03T09:06:35;26.20;99.90
5850;DHT22;2951;47.712;9.400;2022-08-03T09:09:02;26.20;99.90
5850;DHT22;2951;47.712;9.400;2022-08-03T09:11:29;26.40;99.90
5850;DHT22;2951;47.712;9.400;2022-08-03T09:14:18;26.40;99.90
5850;DHT22;2951;47.712;9.400;2022-08-03T09:17:05;26.50;99.90
5850;DHT22;2951;47.712;9.400;2022-08-03T09:19:32;26.40;99.90
5850;DHT22;2951;47.712;9.400;2022-08-03T09:22:15;26.40;99.90
5850;DHT22;2951;47.712;9.400;2022-08-03T09:25:03;26.30;99.90
5850;DHT22;2951;47.712;9.400;2022-08-03T09:27:49;26.30;99.90
5850;DHT22;2951;47.712;9.400;2022-08-03T09:30:16;26.70;99.90
5850;DHT22;2951;47.712;9.400;2022-08-03T09:33:12;26.70;99.90
5850;DHT22;2951;47.712;9.400;2022-08-03T09:35:41;26.80;99.90
5850;DHT22;2951;47.712;9.400;2022-08-03T09:38:24;27.00;99.90
5850;DHT22;2951;47.712;9.400;2022-08-03T09:40:54;26.90;99.90
5850;DHT22;2951;47.712;9.400;2022-08-03T09:43:26;27.10;99.90
5850;DHT22;2951;47.712;9.400;2022-08-03T09:46:03;27.30;99.90
5850;DHT22;2951;47.712;9.400;2022-08-03T09:48:30;27.20;99.90
5850;DHT22;2951;47.712;9.400;2022-08-03T09:51:00;27.20;99.90
5850;DHT22;2951;47.712;9.400;2022-08-03T09:53:45;27.20;99.90
5850;DHT22;2951;47.712;9.400;2022-08-03T09:56:22;27.30;99.90
5850;DHT22;2951;47.712;9.400;2022-08-03T09:59:02;27.60;99.90
5850;DHT22;2951;47.712;9.400;2022-08-03T10:01:33;27.70;99.90
5850;DHT22;2951;47.712;9.400;2022-08-03T10:04:00;27.50;99.90
5850;DHT22;2951;47.712;9.400;2022-08-03T10:06:29;27.50;99.90
5850;DHT22;2951;47.712;9.400;2022-08-03T10:09:13;27.70;99.90
5850;DHT22;2951;47.712;9.400;2022-08-03T10:11:41;27.60;99.90
5850;DHT22;2951;47.712;9.400;2022-08-03T10:14:09;27.50;99.90
5850;DHT22;2951;47.712;9.400;2022-08-03T10:16:38;27.80;99.90
5850;DHT22;2951;47.712;9.400;2022-08-03T10:19:06;27.90;99.90
5850;DHT22;2951;47.712;9.400;2022-08-03T10:21:34;27.90;99.90
5850;DHT22;2951;47.712;9.400;2022-08-03T10:24:02;27.80;99.90
5850;DHT22;2951;47.712;9.400;2022-08-03T10:26:29;27.90;99.90
5850;DHT22;2951;47.712;9.400;2022-08-03T10:28:56;28.30;99.90
5850;DHT22;2951;47.712;9.400;2022-08-03T10:31:25;28.40;99.90
5850;DHT22;2951;47.712;9.400;2022-08-03T10:33:51;28.80;99.90
5850;DHT22;2951;47.712;9.400;2022-08-03T10:36:21;28.80;99.90
5850;DHT22;2951;47.712;9.400;2022-08-03T10:38:50;28.70;99.90
5850;DHT22;2951;47.712;9.400;2022-08-03T10:41:20;28.40;99.90
5850;DHT22;2951;47.712;9.400;2022-08-03T10:44:02;28.40;99.90
5850;DHT22;2951;47.712;9.400;2022-08-03T10:46:29;28.50;99.90
5850;DHT22;2951;47.712;9.400;2022-08-03T10:48:55;28.30;99.90
5850;DHT22;2951;47.712;9.400;2022-08-03T10:51:23;28.50;99.90
5850;DHT22;2951;47.712;9.400;2022-08-03T10:53:50;28.70;99.90
5850;DHT22;2951;47.712;9.400;2022-08-03T10:59:17;29.20;99.90
5850;DHT22;2951;47.712;9.400;2022-08-03T11:01:53;29.20;99.90
5850;DHT22;2951;47.712;9.400;2022-08-03T11:04:25;29.10;99.90
5850;DHT22;2951;47.712;9.400;2022-08-03T11:07:16;29.10;99.90
5850;DHT22;2951;47.712;9.400;2022-08-03T11:09:42;28.90;99.90
5850;DHT22;2951;47.712;9.400;2022-08-03T11:12:20;29.00;99.90
5850;DHT22;2951;47.712;9.400;2022-08-03T11:14:47;29.20;99.90
5850;DHT22;2951;47.712;9.400;2022-08-03T11:17:14;29.10;99.90
5850;DHT22;2951;47.712;9.400;2022-08-03T11:19:42;29.20;99.90
5850;DHT22;2951;47.712;9.400;2022-08-03T11:22:22;29.20;99.90
5850;DHT22;2951;47.712;9.400;2022-08-03T11:27:20;29.70;99.90
5850;DHT22;2951;47.712;9.400;2022-08-03T11:37:35;29.90;99.90
5850;DHT22;2951;47.712;9.400;2022-08-03T11:40:02;30.00;99.90
5850;DHT22;2951;47.712;9.400;2022-08-03T11:44:59;30.40;99.90
5850;DHT22;2951;47.712;9.400;2022-08-03T11:47:26;30.40;99.90
5850;DHT22;2951;47.712;9.400;2022-08-03T11:49:54;30.50;99.90
5850;DHT22;2951;47.712;9.400;2022-08-03T11:52:22;30.40;99.90
5850;DHT22;2951;47.712;9.400;2022-08-03T11:54:53;30.60;99.90
5850;DHT22;2951;47.712;9.400;2022-08-03T11:57:29;30.80;99.90
5850;DHT22;2951;47.712;9.400;2022-08-03T12:00:23;30.70;99.90
5850;DHT22;2951;47.712;9.400;2022-08-03T12:02:58;30.70;99.90
5850;DHT22;2951;47.712;9.400;2022-08-03T12:05:35;30.90;99.90
5850;DHT22;2951;47.712;9.400;2022-08-03T12:08:03;30.90;99.90
5850;DHT22;2951;47.712;9.400;2022-08-03T12:10:32;30.90;99.90
5850;DHT22;2951;47.712;9.400;2022-08-03T12:12:59;30.70;99.90
5850;DHT22;2951;47.712;9.400;2022-08-03T12:15:31;30.70;99.90
5850;DHT22;2951;47.712;9.400;2022-08-03T12:17:59;30.70;99.90
5850;DHT22;2951;47.712;9.400;2022-08-03T12:20:28;30.50;99.90
5850;DHT22;2951;47.712;9.400;2022-08-03T12:23:03;30.80;99.90
5850;DHT22;2951;47.712;9.400;2022-08-03T12:25:31;31.10;99.90
5850;DHT22;2951;47.712;9.400;2022-08-03T12:31:04;31.40;99.90
5850;DHT22;2951;47.712;9.400;2022-08-03T12:33:32;31.70;99.90
5850;DHT22;2951;47.712;9.400;2022-08-03T12:36:18;31.50;99.90
5850;DHT22;2951;47.712;9.400;2022-08-03T12:38:52;31.30;99.90
5850;DHT22;2951;47.712;9.400;2022-08-03T12:41:25;31.50;99.90
5850;DHT22;2951;47.712;9.400;2022-08-03T12:43:52;31.70;99.90
5850;DHT22;2951;47.712;9.400;2022-08-03T12:46:20;31.80;99.90
5850;DHT22;2951;47.712;9.400;2022-08-03T12:54:15;31.30;99.90
5850;DHT22;2951;47.712;9.400;2022-08-03T12:56:58;31.40;99.90
5850;DHT22;2951;47.712;9.400;2022-08-03T12:59:27;31.50;99.90
5850;DHT22;2951;47.712;9.400;2022-08-03T13:01:57;31.40;99.90
5850;DHT22;2951;47.712;9.400;2022-08-03T13:04:28;31.70;99.90
5850;DHT22;2951;47.712;9.400;2022-08-03T13:06:56;32.00;99.90
5850;DHT22;2951;47.712;9.400;2022-08-03T13:09:23;32.20;99.90
5850;DHT22;2951;47.712;9.400;2022-08-03T13:12:11;32.20;99.90
5850;DHT22;2951;47.712;9.400;2022-08-03T13:14:39;32.30;99.90
5850;DHT22;2951;47.712;9.400;2022-08-03T13:17:06;32.00;99.90
5850;DHT22;2951;47.712;9.400;2022-08-03T13:19:36;31.80;99.90
5850;DHT22;2951;47.712;9.400;2022-08-03T13:22:09;31.80;99.90
5850;DHT22;2951;47.712;9.400;2022-08-03T13:24:36;31.60;99.90
5850;DHT22;2951;47.712;9.400;2022-08-03T13:27:03;31.90;99.90
5850;DHT22;2951;47.712;9.400;2022-08-03T13:29:53;31.80;99.90
5850;DHT22;2951;47.712;9.400;2022-08-03T13:32:20;31.80;99.90
5850;DHT22;2951;47.712;9.400;2022-08-03T13:34:47;32.00;99.90
5850;DHT22;2951;47.712;9.400;2022-08-03T13:37:14;31.70;99.90
5850;DHT22;2951;47.712;9.400;2022-08-03T13:39:41;31.70;99.90
5850;DHT22;2951;47.712;9.400;2022-08-03T13:42:24;31.50;99.90
5850;DHT22;2951;47.712;9.400;2022-08-03T13:44:51;31.50;99.90
5850;DHT22;2951;47.712;9.400;2022-08-03T13:47:18;32.00;99.90
5850;DHT22;2951;47.712;9.400;2022-08-03T13:49:45;32.20;99.90
5850;DHT22;2951;47.712;9.400;2022-08-03T13:52:26;32.50;99.90
5850;DHT22;2951;47.712;9.400;2022-08-03T13:54:53;32.50;99.90
5850;DHT22;2951;47.712;9.400;2022-08-03T13:57:20;32.80;99.90
5850;DHT22;2951;47.712;9.400;2022-08-03T14:00:07;32.50;99.90
5850;DHT22;2951;47.712;9.400;2022-08-03T14:02:34;32.30;99.90
5850;DHT22;2951;47.712;9.400;2022-08-03T14:05:01;32.50;99.90
5850;DHT22;2951;47.712;9.400;2022-08-03T14:07:27;33.30;99.90
5850;DHT22;2951;47.712;9.400;2022-08-03T14:09:54;34.20;99.90
5850;DHT22;2951;47.712;9.400;2022-08-03T14:12:21;34.70;99.90
5850;DHT22;2951;47.712;9.400;2022-08-03T14:14:47;35.20;99.90
5850;DHT22;2951;47.712;9.400;2022-08-03T14:17:14;35.50;99.90
5850;DHT22;2951;47.712;9.400;2022-08-03T14:19:41;35.50;99.90
5850;DHT22;2951;47.712;9.400;2022-08-03T14:22:19;35.10;99.90
5850;DHT22;2951;47.712;9.400;2022-08-03T14:24:46;34.80;99.90
5850;DHT22;2951;47.712;9.400;2022-08-03T14:27:13;34.40;99.90
5850;DHT22;2951;47.712;9.400;2022-08-03T14:29:39;34.30;99.90
5850;DHT22;2951;47.712;9.400;2022-08-03T14:32:06;34.50;99.90
5850;DHT22;2951;47.712;9.400;2022-08-03T14:34:36;34.80;99.90
5850;DHT22;2951;47.712;9.400;2022-08-03T14:37:02;34.70;99.90
5850;DHT22;2951;47.712;9.400;2022-08-03T14:39:29;34.80;99.90
5850;DHT22;2951;47.712;9.400;2022-08-03T14:42:16;35.00;99.90
5850;DHT22;2951;47.712;9.400;2022-08-03T14:44:42;35.10;99.90
5850;DHT22;2951;47.712;9.400;2022-08-03T14:47:09;35.70;99.90
5850;DHT22;2951;47.712;9.400;2022-08-03T14:49:36;36.00;99.90
5850;DHT22;2951;47.712;9.400;2022-08-03T14:52:23;36.30;99.90
5850;DHT22;2951;47.712;9.400;2022-08-03T14:54:50;37.00;99.90
5850;DHT22;2951;47.712;9.400;2022-08-03T14:57:16;37.70;99.90
5850;DHT22;2951;47.712;9.400;2022-08-03T14:59:43;37.90;99.90
5850;DHT22;2951;47.712;9.400;2022-08-03T15:02:21;37.20;99.90
5850;DHT22;2951;47.712;9.400;2022-08-03T15:04:49;37.30;99.90
5850;DHT22;2951;47.712;9.400;2022-08-03T15:07:16;37.70;99.90
5850;DHT22;2951;47.712;9.400;2022-08-03T15:09:43;37.80;99.90
5850;DHT22;2951;47.712;9.400;2022-08-03T15:12:10;37.10;99.90
5850;DHT22;2951;47.712;9.400;2022-08-03T15:14:37;37.40;99.90
5850;DHT22;2951;47.712;9.400;2022-08-03T15:17:04;37.10;99.90
5850;DHT22;2951;47.712;9.400;2022-08-03T15:19:31;37.20;99.90
5850;DHT22;2951;47.712;9.400;2022-08-03T15:22:17;37.20;99.90
5850;DHT22;2951;47.712;9.400;2022-08-03T15:24:46;37.20;99.90
5850;DHT22;2951;47.712;9.400;2022-08-03T15:27:13;37.10;99.90
5850;DHT22;2951;47.712;9.400;2022-08-03T15:29:40;36.80;99.90
5850;DHT22;2951;47.712;9.400;2022-08-03T15:32:26;37.10;99.90
5850;DHT22;2951;47.712;9.400;2022-08-03T15:34:53;36.70;99.90
5850;DHT22;2951;47.712;9.400;2022-08-03T15:37:20;37.30;99.90
5850;DHT22;2951;47.712;9.400;2022-08-03T15:39:47;38.40;99.90
5850;DHT22;2951;47.712;9.400;2022-08-03T15:42:25;38.00;99.90
5850;DHT22;2951;47.712;9.400;2022-08-03T15:44:52;38.10;99.90
5850;DHT22;2951;47.712;9.400;2022-08-03T15:47:19;38.80;99.90
5850;DHT22;2951;47.712;9.400;2022-08-03T15:49:45;38.70;99.90
5850;DHT22;2951;47.712;9.400;2022-08-03T15:52:12;39.00;99.90
5850;DHT22;2951;47.712;9.400;2022-08-03T15:54:39;39.20;99.90
5850;DHT22;2951;47.712;9.400;2022-08-03T15:57:06;38.90;99.90
5850;DHT22;2951;47.712;9.400;2022-08-03T15:59:32;38.30;99.90
5850;DHT22;2951;47.712;9.400;2022-08-03T16:01:59;37.60;99.90
5850;DHT22;2951;47.712;9.400;2022-08-03T16:04:26;37.60;99.90
5850;DHT22;2951;47.712;9.400;2022-08-03T16:06:53;37.10;99.90
5850;DHT22;2951;47.712;9.400;2022-08-03T16:09:19;37.10;99.90
5850;DHT22;2951;47.712;9.400;2022-08-03T16:11:49;37.20;99.90
5850;DHT22;2951;47.712;9.400;2022-08-03T16:14:16;37.00;99.90
5850;DHT22;2951;47.712;9.400;2022-08-03T16:16:58;36.40;99.90
5850;DHT22;2951;47.712;9.400;2022-08-03T16:19:25;35.90;99.90
5850;DHT22;2951;47.712;9.400;2022-08-03T16:21:53;35.60;99.90
5850;DHT22;2951;47.712;9.400;2022-08-03T16:24:19;35.40;99.90
5850;DHT22;2951;47.712;9.400;2022-08-03T16:26:53;35.40;99.90
5850;DHT22;2951;47.712;9.400;2022-08-03T16:29:20;35.20;99.90
5850;DHT22;2951;47.712;9.400;2022-08-03T16:31:49;34.90;99.90
5850;DHT22;2951;47.712;9.400;2022-08-03T16:34:17;35.00;99.90
5850;DHT22;2951;47.712;9.400;2022-08-03T16:36:43;35.00;99.90
5850;DHT22;2951;47.712;9.400;2022-08-03T16:39:10;34.80;99.90
5850;DHT22;2951;47.712;9.400;2022-08-03T16:41:37;34.70;99.90
5850;DHT22;2951;47.712;9.400;2022-08-03T16:44:20;34.70;99.90
5850;DHT22;2951;47.712;9.400;2022-08-03T16:46:46;34.50;99.90
5850;DHT22;2951;47.712;9.400;2022-08-03T16:49:13;34.30;99.90
5850;DHT22;2951;47.712;9.400;2022-08-03T16:52:00;34.30;99.90
5850;DHT22;2951;47.712;9.400;2022-08-03T16:54:26;34.20;99.90
5850;DHT22;2951;47.712;9.400;2022-08-03T16:56:53;34.10;99.90